^^

..:: Storico WU ::..




Lo storico viene creato da WUnderground con i dati che la stazione Meteomincio invia al loro server. L' aggiornamento viene fatto ogni 5 minuti circa, tuttavia possono esserci intervalli pi ampi a causa di errori, interruzioni di servizio o problemi nell' invio tramite FTP.


Storico stazione MeteoMincio
 
Giorno Sommario per Agosto 01, 2021 Unità:  Metrico    Inglese   Entrambi
Giorno Settimana Mese Anno
  Corrente: Max: Min: Media:
Temperatura: 20.4 °C 30.3 °C 20.2 °C 24.6 °C
Dew Point: 18.3 °C 22.1 °C 15.4 °C 19.9 °C
Umidità: 88% 90% 42% 77%
Velocità vento: 0km/h 28km/h 0km/h 9.2km/h
Raffica: 0km/h 41km/h - -
DirezioneCalm - - SW
Pressione: 1008.4 hPa 1008.4 hPa 1002.3 hPa -
Precipitazioni: 0.00 mm      
 
 
Tabulato Dati per Agosto 01, 2021
Ora Temperatura Dew Point Pressione Direzione Velocità vento Raffica Umidità Intensità pioggia (oraria) Info solare Situazione
00:04 24.3 °C 20.6 °C 1003.7 hPa East 4 km/h 8 km/h 80% 0.00 mm 0.00 W/m2 unknown
00:09 24.3 °C 20.6 °C 1003.7 hPa East 5 km/h 8 km/h 80% 0.00 mm 0.00 W/m2 unknown
00:14 24.2 °C 20.6 °C 1003.7 hPa East 6 km/h 10 km/h 80% 0.00 mm 0.00 W/m2 unknown
00:19 24.2 °C 20.5 °C 1003.8 hPa East 7 km/h 10 km/h 80% 0.00 mm 0.00 W/m2 unknown
00:24 24.2 °C 20.5 °C 1003.9 hPa East 7 km/h 10 km/h 80% 0.00 mm 0.00 W/m2 unknown
00:29 24.2 °C 20.6 °C 1003.9 hPa East 2 km/h 10 km/h 80% 0.00 mm 0.00 W/m2 unknown
00:34 24.2 °C 20.6 °C 1004.1 hPa ESE 2 km/h 4 km/h 80% 0.00 mm 0.00 W/m2 unknown
00:39 24.2 °C 20.6 °C 1004.2 hPa WSW 6 km/h 6 km/h 80% 0.00 mm 0.00 W/m2 unknown
00:44 24.2 °C 20.8 °C 1004.3 hPa West 6 km/h 6 km/h 81% 0.00 mm 0.00 W/m2 unknown
00:49 24.2 °C 20.7 °C 1004.3 hPa WNW 3 km/h 5 km/h 81% 0.00 mm 0.00 W/m2 unknown
00:54 24.1 °C 20.7 °C 1004.4 hPa WNW 4 km/h 6 km/h 81% 0.00 mm 0.00 W/m2 unknown
00:59 24.1 °C 20.6 °C 1004.5 hPa West 2 km/h 5 km/h 81% 0.00 mm 0.00 W/m2 unknown
01:04 24.0 °C 20.6 °C 1004.7 hPa West 2 km/h 4 km/h 81% 0.00 mm 0.00 W/m2 unknown
01:09 23.9 °C 20.7 °C 1004.7 hPa NW 3 km/h 6 km/h 82% 0.00 mm 0.00 W/m2 unknown
01:14 23.9 °C 20.7 °C 1004.7 hPa Calm   5 km/h 82% 0.00 mm 0.00 W/m2 unknown
01:19 23.9 °C 20.7 °C 1004.7 hPa NW 2 km/h 4 km/h 82% 0.00 mm 0.00 W/m2 unknown
01:24 23.9 °C 20.6 °C 1004.7 hPa NW 3 km/h 4 km/h 82% 0.00 mm 0.00 W/m2 unknown
01:29 23.9 °C 20.6 °C 1004.5 hPa NNW 2 km/h 4 km/h 82% 0.00 mm 0.00 W/m2 unknown
01:34 23.9 °C 20.6 °C 1004.3 hPa NNW 2 km/h 4 km/h 82% 0.00 mm 0.00 W/m2 unknown
01:39 23.9 °C 20.7 °C 1004.3 hPa WNW 3 km/h 4 km/h 82% 0.00 mm 0.00 W/m2 unknown
01:44 23.9 °C 20.7 °C 1004.4 hPa WNW 3 km/h 5 km/h 82% 0.00 mm 0.00 W/m2 unknown
01:49 24.0 °C 20.9 °C 1004.5 hPa West 6 km/h 6 km/h 83% 0.00 mm 0.00 W/m2 unknown
01:54 24.0 °C 20.9 °C 1004.6 hPa WNW 5 km/h 6 km/h 83% 0.00 mm 0.00 W/m2 unknown
01:59 23.9 °C 20.9 °C 1004.7 hPa NW 3 km/h 6 km/h 83% 0.00 mm 0.00 W/m2 unknown
02:04 23.9 °C 20.9 °C 1004.7 hPa NW 3 km/h 6 km/h 83% 0.00 mm 0.00 W/m2 unknown
02:09 23.9 °C 20.8 °C 1004.6 hPa NNW 4 km/h 6 km/h 83% 0.00 mm 0.00 W/m2 unknown
02:14 23.9 °C 20.8 °C 1004.6 hPa NNW 4 km/h 6 km/h 83% 0.00 mm 0.00 W/m2 unknown
02:19 23.9 °C 20.8 °C 1004.5 hPa NNW 3 km/h 6 km/h 83% 0.00 mm 0.00 W/m2 unknown
02:24 23.9 °C 20.8 °C 1004.4 hPa NNW 3 km/h 5 km/h 83% 0.00 mm 0.00 W/m2 unknown
02:29 23.9 °C 20.8 °C 1004.5 hPa NNW 2 km/h 4 km/h 83% 0.00 mm 0.00 W/m2 unknown
02:34 23.9 °C 20.8 °C 1004.5 hPa NNW 1 km/h 3 km/h 83% 0.00 mm 0.00 W/m2 unknown
02:39 23.9 °C 20.8 °C 1004.4 hPa North 2 km/h 4 km/h 83% 0.00 mm 0.00 W/m2 unknown
02:44 23.9 °C 20.8 °C 1004.2 hPa NNW 4 km/h 6 km/h 83% 0.00 mm 0.00 W/m2 unknown
02:49 23.8 °C 20.8 °C 1004.3 hPa NW 4 km/h 6 km/h 83% 0.00 mm 0.00 W/m2 unknown
02:54 23.8 °C 20.8 °C 1004.3 hPa NW 3 km/h 8 km/h 83% 0.00 mm 0.00 W/m2 unknown
02:59 23.9 °C 20.9 °C 1004.3 hPa NW 6 km/h 10 km/h 84% 0.00 mm 0.00 W/m2 unknown
03:04 23.8 °C 20.9 °C 1004.3 hPa North 7 km/h 10 km/h 84% 0.00 mm 0.00 W/m2 unknown
03:09 23.8 °C 20.8 °C 1004.1 hPa NNW 2 km/h 10 km/h 83% 0.00 mm 0.00 W/m2 unknown
03:14 23.8 °C 20.8 °C 1004.0 hPa North 1 km/h 3 km/h 83% 0.00 mm 0.00 W/m2 unknown
03:19 23.8 °C 20.7 °C 1003.8 hPa North 1 km/h 2 km/h 83% 0.00 mm 0.00 W/m2 unknown
03:24 23.8 °C 20.7 °C 1004.0 hPa SW 4 km/h 6 km/h 83% 0.00 mm 0.00 W/m2 unknown
03:29 23.8 °C 20.8 °C 1004.2 hPa WSW 7 km/h 8 km/h 84% 0.00 mm 0.00 W/m2 unknown
03:34 23.7 °C 20.8 °C 1004.3 hPa WNW 9 km/h 13 km/h 84% 0.00 mm 0.00 W/m2 unknown
03:39 23.6 °C 20.7 °C 1004.3 hPa West 10 km/h 13 km/h 84% 0.00 mm 0.00 W/m2 unknown
03:44 23.4 °C 20.7 °C 1004.1 hPa SW 5 km/h 13 km/h 85% 0.00 mm 0.00 W/m2 unknown
03:49 23.3 °C 20.7 °C 1004.0 hPa SW 4 km/h 6 km/h 85% 0.00 mm 0.00 W/m2 unknown
03:54 23.2 °C 20.6 °C 1003.9 hPa SW 5 km/h 8 km/h 85% 0.00 mm 0.00 W/m2 unknown
03:59 23.2 °C 20.7 °C 1004.2 hPa SSW 8 km/h 10 km/h 86% 0.00 mm 0.00 W/m2 unknown
04:04 23.1 °C 20.7 °C 1004.2 hPa SSW 8 km/h 10 km/h 87% 0.00 mm 0.00 W/m2 unknown
04:09 22.9 °C 20.7 °C 1004.2 hPa SW 6 km/h 10 km/h 87% 0.00 mm 0.00 W/m2 unknown
04:14 22.9 °C 20.6 °C 1003.9 hPa WSW 6 km/h 6 km/h 87% 0.00 mm 0.00 W/m2 unknown
04:19 22.8 °C 20.6 °C 1003.6 hPa West 11 km/h 17 km/h 87% 0.00 mm 0.00 W/m2 unknown
04:24 22.7 °C 20.4 °C 1003.6 hPa West 11 km/h 16 km/h 87% 0.00 mm 0.00 W/m2 unknown
04:29 22.6 °C 20.3 °C 1003.4 hPa West 5 km/h 13 km/h 87% 0.00 mm 0.00 W/m2 unknown
04:34 22.5 °C 20.2 °C 1004.1 hPa WSW 15 km/h 19 km/h 87% 0.00 mm 0.00 W/m2 unknown
04:39 22.4 °C 20.1 °C 1004.0 hPa WSW 15 km/h 19 km/h 87% 0.00 mm 0.00 W/m2 unknown
04:44 22.2 °C 19.9 °C 1003.3 hPa East 8 km/h 19 km/h 87% 0.00 mm 0.00 W/m2 unknown
04:49 22.0 °C 19.8 °C 1003.3 hPa West 8 km/h 10 km/h 87% 0.00 mm 0.00 W/m2 unknown
04:54 21.9 °C 19.7 °C 1003.3 hPa WSW 6 km/h 10 km/h 88% 0.00 mm 0.00 W/m2 unknown
04:59 21.8 °C 19.7 °C 1003.2 hPa West 5 km/h 8 km/h 88% 0.00 mm 0.00 W/m2 unknown
05:04 21.7 °C 19.6 °C 1003.6 hPa WSW 7 km/h 10 km/h 88% 0.00 mm 0.00 W/m2 unknown
05:09 21.5 °C 19.4 °C 1003.6 hPa WSW 8 km/h 10 km/h 88% 0.00 mm 0.00 W/m2 unknown
05:14 21.4 °C 19.3 °C 1003.7 hPa SW 8 km/h 11 km/h 88% 0.00 mm 0.00 W/m2 unknown
05:19 21.3 °C 19.2 °C 1003.8 hPa SSW 7 km/h 11 km/h 88% 0.00 mm 0.00 W/m2 unknown
05:24 21.1 °C 19.1 °C 1003.9 hPa SW 9 km/h 13 km/h 88% 0.00 mm 0.00 W/m2 unknown
05:29 21.0 °C 19.0 °C 1003.9 hPa SW 8 km/h 13 km/h 89% 0.00 mm 0.00 W/m2 unknown
05:34 20.9 °C 19.0 °C 1003.8 hPa WSW 8 km/h 11 km/h 89% 0.00 mm 0.00 W/m2 unknown
05:39 20.8 °C 18.9 °C 1003.7 hPa WSW 8 km/h 10 km/h 89% 0.00 mm 0.00 W/m2 unknown
05:44 20.7 °C 18.7 °C 1003.6 hPa West 5 km/h 8 km/h 88% 0.00 mm 0.00 W/m2 unknown
05:49 20.6 °C 18.6 °C 1003.5 hPa West 8 km/h 10 km/h 88% 0.00 mm 0.00 W/m2 unknown
05:54 20.6 °C 18.6 °C 1003.4 hPa West 8 km/h 10 km/h 89% 0.00 mm 0.00 W/m2 unknown
05:59 20.5 °C 18.6 °C 1003.5 hPa WSW 5 km/h 10 km/h 89% 0.00 mm 0.00 W/m2 unknown
06:04 20.4 °C 18.3 °C 1003.3 hPa WSW 5 km/h 6 km/h 88% 0.00 mm 0.00 W/m2 unknown
06:09 20.4 °C 18.4 °C 1003.2 hPa West 5 km/h 6 km/h 89% 0.00 mm 0.00 W/m2 unknown
06:14 20.3 °C 18.4 °C 1002.9 hPa WNW 4 km/h 6 km/h 89% 0.00 mm 5.00 W/m2 unknown
06:19 20.3 °C 18.4 °C 1002.7 hPa WNW 4 km/h 6 km/h 89% 0.00 mm 7.00 W/m2 unknown
06:24 20.2 °C 18.3 °C 1002.6 hPa West 3 km/h 6 km/h 89% 0.00 mm 11.00 W/m2 unknown
06:29 20.2 °C 18.3 °C 1002.7 hPa West 3 km/h 5 km/h 89% 0.00 mm 12.00 W/m2 unknown
06:34 20.2 °C 18.3 °C 1002.8 hPa WSW 3 km/h 4 km/h 89% 0.00 mm 16.00 W/m2 unknown
06:39 20.2 °C 18.3 °C 1002.7 hPa WSW 3 km/h 4 km/h 89% 0.00 mm 23.00 W/m2 unknown
06:44 20.2 °C 18.3 °C 1002.6 hPa SE 4 km/h 6 km/h 89% 0.00 mm 30.00 W/m2 unknown
06:49 20.2 °C 18.6 °C 1002.7 hPa SSE 5 km/h 6 km/h 90% 0.00 mm 35.00 W/m2 unknown
06:54 20.2 °C 18.6 °C 1002.7 hPa SE 2 km/h 5 km/h 90% 0.00 mm 40.00 W/m2 unknown
06:59 20.3 °C 18.6 °C 1002.6 hPa SE 2 km/h 4 km/h 90% 0.00 mm 44.00 W/m2 unknown
07:04 20.4 °C 18.7 °C 1002.4 hPa Calm   3 km/h 90% 0.00 mm 44.00 W/m2 unknown
07:09 20.4 °C 18.7 °C 1002.4 hPa WSW 2 km/h 5 km/h 90% 0.00 mm 44.00 W/m2 unknown
07:14 20.5 °C 18.8 °C 1002.3 hPa NNW 3 km/h 6 km/h 90% 0.00 mm 70.00 W/m2 unknown
07:19 20.6 °C 18.9 °C 1002.5 hPa NNW 1 km/h 5 km/h 90% 0.00 mm 83.00 W/m2 unknown
07:24 20.7 °C 19.0 °C 1002.6 hPa NNW 1 km/h 4 km/h 90% 0.00 mm 98.00 W/m2 unknown
07:29 20.9 °C 19.2 °C 1002.7 hPa ESE 4 km/h 6 km/h 90% 0.00 mm 113.00 W/m2 unknown
07:34 21.2 °C 19.4 °C 1002.8 hPa SE 4 km/h 6 km/h 90% 0.00 mm 123.00 W/m2 unknown
07:39 21.3 °C 19.4 °C 1003.1 hPa South 6 km/h 8 km/h 89% 0.00 mm 144.00 W/m2 unknown
07:44 21.5 °C 19.4 °C 1003.1 hPa South 8 km/h 10 km/h 89% 0.00 mm 174.00 W/m2 unknown
07:49 21.6 °C 19.6 °C 1003.2 hPa SSW 8 km/h 10 km/h 88% 0.00 mm 174.00 W/m2 unknown
07:54 21.7 °C 19.7 °C 1003.1 hPa SW 6 km/h 10 km/h 88% 0.00 mm 225.00 W/m2 unknown
07:59 21.9 °C 19.8 °C 1003.0 hPa SW 4 km/h 8 km/h 88% 0.00 mm 241.00 W/m2 unknown
08:04 22.2 °C 19.9 °C 1003.0 hPa West 3 km/h 6 km/h 87% 0.00 mm 232.00 W/m2 unknown
08:09 22.4 °C 20.1 °C 1002.9 hPa West 2 km/h 5 km/h 87% 0.00 mm 214.00 W/m2 unknown
08:14 22.7 °C 20.3 °C 1003.0 hPa SSW 5 km/h 6 km/h 86% 0.00 mm 309.00 W/m2 unknown
08:19 23.0 °C 20.4 °C 1003.0 hPa SSE 7 km/h 8 km/h 86% 0.00 mm 309.00 W/m2 unknown
08:24 23.2 °C 20.6 °C 1003.0 hPa East 6 km/h 7 km/h 85% 0.00 mm 302.00 W/m2 unknown
08:29 23.4 °C 20.6 °C 1003.1 hPa SSW 6 km/h 10 km/h 85% 0.00 mm 343.00 W/m2 unknown
08:34 23.5 °C 20.6 °C 1003.1 hPa South 6 km/h 10 km/h 84% 0.00 mm 343.00 W/m2 unknown
08:39 23.6 °C 20.7 °C 1003.1 hPa South 7 km/h 10 km/h 84% 0.00 mm 427.00 W/m2 unknown
08:44 24.0 °C 21.0 °C 1003.2 hPa SSW 7 km/h 10 km/h 84% 0.00 mm 401.00 W/m2 unknown
08:49 24.3 °C 21.1 °C 1003.1 hPa SW 9 km/h 11 km/h 83% 0.00 mm 396.00 W/m2 unknown
08:54 24.4 °C 21.1 °C 1003.1 hPa WSW 9 km/h 13 km/h 82% 0.00 mm 360.00 W/m2 unknown
08:59 24.6 °C 21.1 °C 1003.1 hPa WSW 10 km/h 13 km/h 81% 0.00 mm 388.00 W/m2 unknown
09:04 24.7 °C 21.2 °C 1003.2 hPa West 10 km/h 13 km/h 81% 0.00 mm 411.00 W/m2 unknown
09:09 24.7 °C 21.2 °C 1003.3 hPa SW 7 km/h 10 km/h 81% 0.00 mm 244.00 W/m2 unknown
09:14 24.6 °C 21.1 °C 1003.4 hPa West 9 km/h 11 km/h 81% 0.00 mm 193.00 W/m2 unknown
09:19 24.4 °C 20.9 °C 1003.4 hPa West 8 km/h 11 km/h 81% 0.00 mm 431.00 W/m2 unknown
09:24 24.5 °C 21.0 °C 1003.4 hPa West 7 km/h 10 km/h 81% 0.00 mm 431.00 W/m2 unknown
09:29 24.7 °C 21.2 °C 1003.3 hPa West 9 km/h 11 km/h 81% 0.00 mm 425.00 W/m2 unknown
09:34 24.9 °C 21.2 °C 1003.4 hPa WSW 8 km/h 11 km/h 80% 0.00 mm 461.00 W/m2 unknown
09:39 25.1 °C 21.2 °C 1003.4 hPa WSW 6 km/h 8 km/h 80% 0.00 mm 461.00 W/m2 unknown
09:44 25.2 °C 21.3 °C 1003.4 hPa WSW 7 km/h 10 km/h 79% 0.00 mm 476.00 W/m2 unknown
09:49 25.5 °C 21.4 °C 1003.4 hPa West 8 km/h 10 km/h 79% 0.00 mm 485.00 W/m2 unknown
09:54 25.5 °C 21.4 °C 1003.3 hPa WSW 7 km/h 10 km/h 78% 0.00 mm 512.00 W/m2 unknown
09:59 25.6 °C 21.5 °C 1003.3 hPa SSW 5 km/h 8 km/h 78% 0.00 mm 548.00 W/m2 unknown
10:04 25.7 °C 21.5 °C 1003.3 hPa WSW 7 km/h 10 km/h 78% 0.00 mm 564.00 W/m2 unknown
10:09 25.7 °C 21.4 °C 1003.3 hPa WSW 8 km/h 10 km/h 77% 0.00 mm 580.00 W/m2 unknown
10:14 26.4 °C 21.9 °C 1003.5 hPa SW 8 km/h 10 km/h 77% 0.00 mm 635.00 W/m2 unknown
10:19 26.4 °C 21.8 °C 1003.6 hPa SW 7 km/h 10 km/h 76% 0.00 mm 635.00 W/m2 unknown
10:24 26.3 °C 21.7 °C 1003.6 hPa SW 9 km/h 11 km/h 76% 0.00 mm 392.00 W/m2 unknown
10:29 26.3 °C 21.5 °C 1003.6 hPa SSW 10 km/h 11 km/h 75% 0.00 mm 288.00 W/m2 unknown
10:34 26.4 °C 21.6 °C 1003.6 hPa SSW 11 km/h 15 km/h 75% 0.00 mm 346.00 W/m2 unknown
10:39 26.6 °C 21.6 °C 1003.6 hPa SSW 11 km/h 19 km/h 74% 0.00 mm 464.00 W/m2 unknown
10:44 26.9 °C 21.8 °C 1003.5 hPa SSW 11 km/h 19 km/h 74% 0.00 mm 612.00 W/m2 unknown
10:49 26.9 °C 21.8 °C 1003.6 hPa SW 11 km/h 16 km/h 74% 0.00 mm 434.00 W/m2 unknown
10:54 27.1 °C 21.8 °C 1003.6 hPa SSW 13 km/h 19 km/h 74% 0.00 mm 432.00 W/m2 unknown
10:59 27.2 °C 21.7 °C 1003.6 hPa SW 12 km/h 19 km/h 72% 0.00 mm 747.00 W/m2 unknown
11:04 27.3 °C 21.8 °C 1003.7 hPa SW 15 km/h 21 km/h 72% 0.00 mm 747.00 W/m2 unknown
11:09 27.3 °C 21.5 °C 1003.6 hPa SSW 14 km/h 21 km/h 71% 0.00 mm 629.00 W/m2 unknown
11:14 27.1 °C 21.3 °C 1003.6 hPa SSW 14 km/h 19 km/h 72% 0.00 mm 229.00 W/m2 unknown
11:19 26.6 °C 21.2 °C 1003.5 hPa SSW 14 km/h 21 km/h 73% 0.00 mm 369.00 W/m2 unknown
11:24 26.5 °C 21.2 °C 1003.5 hPa SSW 15 km/h 21 km/h 73% 0.00 mm 626.00 W/m2 unknown
11:29 27.2 °C 21.8 °C 1003.4 hPa SSW 15 km/h 21 km/h 73% 0.00 mm 798.00 W/m2 unknown
11:34 27.4 °C 21.7 °C 1003.2 hPa SSW 13 km/h 19 km/h 71% 0.00 mm 840.00 W/m2 unknown
11:39 27.9 °C 22.1 °C 1003.1 hPa SW 13 km/h 19 km/h 71% 0.00 mm 854.00 W/m2 unknown
11:44 27.9 °C 21.7 °C 1003.1 hPa SW 13 km/h 19 km/h 69% 0.00 mm 854.00 W/m2 unknown
11:49 28.0 °C 21.7 °C 1003.1 hPa SW 12 km/h 19 km/h 69% 0.00 mm 796.00 W/m2 unknown
11:54 28.1 °C 21.7 °C 1003.0 hPa South 15 km/h 21 km/h 68% 0.00 mm 765.00 W/m2 unknown
11:59 28.0 °C 21.6 °C 1002.9 hPa SSW 14 km/h 21 km/h 68% 0.00 mm 788.00 W/m2 unknown
12:04 28.2 °C 21.5 °C 1003.0 hPa SSW 14 km/h 23 km/h 68% 0.00 mm 789.00 W/m2 unknown
12:09 28.3 °C 21.5 °C 1002.9 hPa SSW 15 km/h 23 km/h 67% 0.00 mm 791.00 W/m2 unknown
12:14 28.4 °C 21.3 °C 1003.1 hPa SSW 15 km/h 24 km/h 66% 0.00 mm 796.00 W/m2 unknown
12:19 28.6 °C 21.3 °C 1003.0 hPa SSW 15 km/h 24 km/h 65% 0.00 mm 805.00 W/m2 unknown
12:24 28.7 °C 21.2 °C 1002.9 hPa SW 13 km/h 24 km/h 64% 0.00 mm 814.00 W/m2 unknown
12:29 28.6 °C 20.6 °C 1003.0 hPa SSW 15 km/h 19 km/h 62% 0.00 mm 812.00 W/m2 unknown
12:34 28.9 °C 21.1 °C 1003.0 hPa SW 18 km/h 26 km/h 64% 0.00 mm 819.00 W/m2 unknown
12:39 29.1 °C 21.1 °C 1003.1 hPa SSW 17 km/h 30 km/h 62% 0.00 mm 863.00 W/m2 unknown
12:44 29.2 °C 21.1 °C 1003.1 hPa SW 23 km/h 29 km/h 62% 0.00 mm 923.00 W/m2 unknown
12:49 29.1 °C 20.6 °C 1003.2 hPa SW 23 km/h 32 km/h 62% 0.00 mm 904.00 W/m2 unknown
12:54 28.9 °C 20.9 °C 1003.3 hPa SSW 19 km/h 32 km/h 62% 0.00 mm 381.00 W/m2 unknown
12:59 28.9 °C 20.7 °C 1003.3 hPa SSW 19 km/h 30 km/h 62% 0.00 mm 459.00 W/m2 unknown
13:04 28.6 °C 20.9 °C 1003.3 hPa WSW 16 km/h 29 km/h 64% 0.00 mm 559.00 W/m2 unknown
13:09 28.6 °C 21.1 °C 1003.3 hPa WSW 16 km/h 23 km/h 64% 0.00 mm 1063.00 W/m2 unknown
13:14 29.6 °C 21.7 °C 1003.2 hPa WSW 15 km/h 23 km/h 64% 0.00 mm 1011.00 W/m2 unknown
13:19 29.6 °C 21.4 °C 1003.2 hPa SW 14 km/h 21 km/h 62% 0.00 mm 965.00 W/m2 unknown
13:24 29.4 °C 21.1 °C 1003.2 hPa SW 14 km/h 24 km/h 62% 0.00 mm 285.00 W/m2 unknown
13:29 28.4 °C 20.4 °C 1003.1 hPa SW 19 km/h 27 km/h 62% 0.00 mm 181.00 W/m2 unknown
13:34 28.3 °C 19.7 °C 1003.0 hPa SSW 17 km/h 28 km/h 60% 0.00 mm 176.00 W/m2 unknown
13:39 28.1 °C 20.1 °C 1003.0 hPa SW 15 km/h 27 km/h 62% 0.00 mm 214.00 W/m2 unknown
13:44 28.2 °C 20.2 °C 1002.8 hPa SW 19 km/h 26 km/h 62% 0.00 mm 323.00 W/m2 unknown
13:49 28.1 °C 19.9 °C 1002.8 hPa SW 20 km/h 28 km/h 61% 0.00 mm 267.00 W/m2 unknown
13:54 28.7 °C 20.9 °C 1002.7 hPa SW 21 km/h 31 km/h 63% 0.00 mm 863.00 W/m2 unknown
13:59 29.0 °C 21.2 °C 1002.8 hPa SSW 21 km/h 32 km/h 63% 0.00 mm 909.00 W/m2 unknown
14:04 29.2 °C 21.5 °C 1002.9 hPa SSW 20 km/h 32 km/h 64% 0.00 mm 865.00 W/m2 unknown
14:09 29.3 °C 21.5 °C 1003.0 hPa SW 19 km/h 30 km/h 63% 0.00 mm 461.00 W/m2 unknown
14:14 29.3 °C 21.2 °C 1003.2 hPa SW 20 km/h 32 km/h 62% 0.00 mm 492.00 W/m2 unknown
14:19 29.2 °C 20.7 °C 1003.2 hPa SW 16 km/h 32 km/h 62% 0.00 mm 199.00 W/m2 unknown
14:24 28.4 °C 20.2 °C 1003.3 hPa SW 15 km/h 21 km/h 63% 0.00 mm 163.00 W/m2 unknown
14:29 27.8 °C 20.6 °C 1003.4 hPa WSW 15 km/h 21 km/h 66% 0.00 mm 158.00 W/m2 unknown
14:34 27.5 °C 21.2 °C 1003.4 hPa WSW 11 km/h 21 km/h 69% 0.00 mm 301.00 W/m2 unknown
14:39 28.1 °C 21.7 °C 1003.3 hPa WSW 13 km/h 16 km/h 70% 0.00 mm 693.00 W/m2 unknown
14:44 28.6 °C 21.7 °C 1003.1 hPa WSW 18 km/h 26 km/h 68% 0.00 mm 693.00 W/m2 unknown
14:49 28.5 °C 21.3 °C 1003.3 hPa West 17 km/h 26 km/h 67% 0.00 mm 450.00 W/m2 unknown
14:54 27.6 °C 20.8 °C 1003.5 hPa West 19 km/h 26 km/h 70% 0.00 mm 295.00 W/m2 unknown
14:59 27.1 °C 21.1 °C 1003.6 hPa West 16 km/h 26 km/h 71% 0.00 mm 925.00 W/m2 unknown
15:04 27.6 °C 20.8 °C 1003.6 hPa WNW 13 km/h 23 km/h 69% 0.00 mm 889.00 W/m2 unknown
15:09 27.9 °C 20.2 °C 1003.6 hPa NW 11 km/h 18 km/h 64% 0.00 mm 886.00 W/m2 unknown
15:14 28.2 °C 20.0 °C 1003.6 hPa NNW 12 km/h 19 km/h 62% 0.00 mm 802.00 W/m2 unknown
15:19 28.1 °C 20.1 °C 1003.6 hPa NNW 11 km/h 19 km/h 63% 0.00 mm 837.00 W/m2 unknown
15:24 27.7 °C 20.1 °C 1003.6 hPa NNW 11 km/h 19 km/h 64% 0.00 mm 837.00 W/m2 unknown
15:29 27.3 °C 20.4 °C 1003.5 hPa NNW 13 km/h 19 km/h 66% 0.00 mm 682.00 W/m2 unknown
15:34 27.3 °C 20.4 °C 1003.4 hPa North 6 km/h 19 km/h 66% 0.00 mm 640.00 W/m2 unknown
15:39 27.3 °C 20.4 °C 1003.5 hPa WSW 5 km/h 10 km/h 66% 0.00 mm 584.00 W/m2 unknown
15:44 28.0 °C 20.4 °C 1003.5 hPa West 8 km/h 11 km/h 64% 0.00 mm 533.00 W/m2 unknown
15:49 27.9 °C 20.3 °C 1003.5 hPa WNW 8 km/h 11 km/h 64% 0.00 mm 624.00 W/m2 unknown
15:54 28.1 °C 20.1 °C 1003.4 hPa WNW 7 km/h 11 km/h 63% 0.00 mm 478.00 W/m2 unknown
15:59 28.4 °C 20.3 °C 1003.3 hPa WSW 6 km/h 8 km/h 62% 0.00 mm 336.00 W/m2 unknown
16:04 28.6 °C 21.0 °C 1003.2 hPa NW 7 km/h 11 km/h 64% 0.00 mm 271.00 W/m2 unknown
16:09 28.7 °C 20.4 °C 1003.2 hPa West 9 km/h 11 km/h 61% 0.00 mm 364.00 W/m2 unknown
16:14 29.1 °C 20.4 °C 1003.1 hPa SSW 9 km/h 13 km/h 60% 0.00 mm 464.00 W/m2 unknown
16:19 29.6 °C 20.9 °C 1003.1 hPa SSW 11 km/h 16 km/h 61% 0.00 mm 673.00 W/m2 unknown
16:24 29.9 °C 20.8 °C 1003.1 hPa SW 26 km/h 34 km/h 59% 0.00 mm 645.00 W/m2 unknown
16:29 29.9 °C 19.9 °C 1003.1 hPa SSW 19 km/h 34 km/h 55% 0.00 mm 687.00 W/m2 unknown
16:34 30.1 °C 16.9 °C 1003.0 hPa SW 24 km/h 32 km/h 46% 0.00 mm 663.00 W/m2 unknown
16:39 30.1 °C 16.9 °C 1002.9 hPa SW 24 km/h 32 km/h 45% 0.00 mm 628.00 W/m2 unknown
16:44 30.0 °C 16.4 °C 1002.9 hPa SSW 26 km/h 35 km/h 44% 0.00 mm 608.00 W/m2 unknown
16:49 29.9 °C 16.4 °C 1003.0 hPa SSW 27 km/h 39 km/h 44% 0.00 mm 599.00 W/m2 unknown
16:54 30.0 °C 16.1 °C 1003.1 hPa SW 26 km/h 39 km/h 43% 0.00 mm 589.00 W/m2 unknown
16:59 30.3 °C 16.3 °C 1003.2 hPa SSW 23 km/h 35 km/h 43% 0.00 mm 575.00 W/m2 unknown
17:04 30.2 °C 16.3 °C 1003.3 hPa SW 23 km/h 35 km/h 43% 0.00 mm 563.00 W/m2 unknown
17:09 30.1 °C 15.8 °C 1003.5 hPa SW 21 km/h 30 km/h 42% 0.00 mm 554.00 W/m2 unknown
17:14 30.1 °C 15.8 °C 1003.7 hPa SW 24 km/h 34 km/h 42% 0.00 mm 522.00 W/m2 unknown
17:19 30.0 °C 15.7 °C 1003.8 hPa WSW 24 km/h 34 km/h 42% 0.00 mm 522.00 W/m2 unknown
17:24 29.8 °C 15.4 °C 1004.0 hPa WSW 21 km/h 30 km/h 44% 0.00 mm 123.00 W/m2 unknown
17:29 28.9 °C 18.4 °C 1004.3 hPa West 16 km/h 26 km/h 55% 0.00 mm 90.00 W/m2 unknown
17:34 28.3 °C 19.0 °C 1004.2 hPa North 8 km/h 21 km/h 60% 0.00 mm 90.00 W/m2 unknown
17:39 27.4 °C 18.9 °C 1004.2 hPa ENE 8 km/h 11 km/h 62% 0.00 mm 102.00 W/m2 unknown
17:44 26.8 °C 19.5 °C 1004.3 hPa ENE 10 km/h 13 km/h 66% 0.00 mm 125.00 W/m2 unknown
17:49 26.4 °C 19.7 °C 1004.3 hPa NE 10 km/h 13 km/h 67% 0.00 mm 114.00 W/m2 unknown
17:54 26.3 °C 19.4 °C 1004.3 hPa NNE 10 km/h 13 km/h 66% 0.00 mm 111.00 W/m2 unknown
17:59 26.3 °C 19.4 °C 1004.3 hPa SSE 8 km/h 13 km/h 66% 0.00 mm 111.00 W/m2 unknown
18:04 26.2 °C 19.4 °C 1004.3 hPa ENE 8 km/h 13 km/h 67% 0.00 mm 91.00 W/m2 unknown
18:09 26.0 °C 19.4 °C 1004.5 hPa ENE 6 km/h 10 km/h 67% 0.00 mm 84.00 W/m2 unknown
18:14 25.9 °C 19.7 °C 1004.9 hPa North 12 km/h 21 km/h 69% 0.00 mm 221.00 W/m2 unknown
18:19 26.0 °C 19.6 °C 1005.3 hPa NNW 19 km/h 28 km/h 68% 0.00 mm 123.00 W/m2 unknown
18:24 25.8 °C 19.0 °C 1005.5 hPa NNW 16 km/h 28 km/h 67% 0.00 mm 121.00 W/m2 unknown
18:29 25.1 °C 18.6 °C 1006.2 hPa NNW 19 km/h 28 km/h 69% 0.00 mm 102.00 W/m2 unknown
18:34 24.5 °C 18.4 °C 1006.4 hPa NW 20 km/h 32 km/h 71% 0.00 mm 174.00 W/m2 unknown
18:39 24.0 °C 18.5 °C 1006.5 hPa NW 28 km/h 41 km/h 72% 0.00 mm 193.00 W/m2 unknown
18:44 23.7 °C 18.4 °C 1006.6 hPa NW 26 km/h 41 km/h 73% 0.00 mm 156.00 W/m2 unknown
18:49 22.7 °C 17.7 °C 1006.6 hPa NNW 21 km/h 32 km/h 75% 0.00 mm 95.00 W/m2 unknown
18:54 22.2 °C 17.7 °C 1006.6 hPa NNW 14 km/h 23 km/h 76% 0.00 mm 72.00 W/m2 unknown
18:59 21.9 °C 17.9 °C 1006.6 hPa NW 16 km/h 23 km/h 78% 0.00 mm 35.00 W/m2 unknown
19:04 21.9 °C 18.0 °C 1006.5 hPa North 11 km/h 23 km/h 79% 0.00 mm 35.00 W/m2 unknown
19:09 22.0 °C 17.8 °C 1006.3 hPa NW 11 km/h 16 km/h 78% 0.00 mm 33.00 W/m2 unknown
19:14 22.2 °C 18.6 °C 1006.3 hPa North 10 km/h 15 km/h 80% 0.00 mm 33.00 W/m2 unknown
19:19 22.2 °C 18.6 °C 1006.2 hPa North 10 km/h 13 km/h 81% 0.00 mm 33.00 W/m2 unknown
19:24 22.0 °C 18.4 °C 1005.8 hPa NNE 12 km/h 17 km/h 81% 0.00 mm 93.00 W/m2 unknown
19:29 21.6 °C 18.3 °C 1005.9 hPa NNE 12 km/h 17 km/h 82% 0.00 mm 111.00 W/m2 unknown
19:34 21.5 °C 18.3 °C 1005.9 hPa NE 10 km/h 15 km/h 82% 0.00 mm 90.00 W/m2 unknown
19:39 21.6 °C 18.3 °C 1005.9 hPa NE 8 km/h 13 km/h 82% 0.00 mm 88.00 W/m2 unknown
19:44 21.6 °C 18.2 °C 1005.7 hPa East 10 km/h 13 km/h 81% 0.00 mm 39.00 W/m2 unknown
19:49 21.5 °C 18.2 °C 1005.8 hPa East 10 km/h 11 km/h 82% 0.00 mm 21.00 W/m2 unknown
19:54 21.3 °C 18.1 °C 1005.9 hPa ESE 5 km/h 8 km/h 82% 0.00 mm 18.00 W/m2 unknown
19:59 21.2 °C 18.2 °C 1006.0 hPa SE 4 km/h 7 km/h 83% 0.00 mm 12.00 W/m2 unknown
20:04 21.2 °C 18.2 °C 1006.1 hPa SSE 3 km/h 6 km/h 83% 0.00 mm 12.00 W/m2 unknown
20:09 21.1 °C 18.1 °C 1006.3 hPa South 3 km/h 6 km/h 83% 0.00 mm 16.00 W/m2 unknown
20:14 21.3 °C 18.2 °C 1006.3 hPa SSW 4 km/h 6 km/h 83% 0.00 mm 23.00 W/m2 unknown
20:19 21.3 °C 18.1 °C 1006.3 hPa WSW 3 km/h 6 km/h 82% 0.00 mm 39.00 W/m2 unknown
20:24 21.5 °C 18.3 °C 1006.4 hPa WSW 6 km/h 6 km/h 82% 0.00 mm 40.00 W/m2 unknown
20:29 21.5 °C 18.5 °C 1006.4 hPa WSW 5 km/h 6 km/h 83% 0.00 mm 37.00 W/m2 unknown
20:34 21.4 °C 18.4 °C 1006.4 hPa West 3 km/h 5 km/h 83% 0.00 mm 28.00 W/m2 unknown
20:39 21.4 °C 18.6 °C 1006.9 hPa WNW 7 km/h 10 km/h 84% 0.00 mm 30.00 W/m2 unknown
20:44 21.5 °C 18.7 °C 1007.0 hPa NNW 6 km/h 10 km/h 84% 0.00 mm 19.00 W/m2 unknown
20:49 21.5 °C 18.7 °C 1007.1 hPa West 8 km/h 10 km/h 84% 0.00 mm 5.00 W/m2 unknown
20:54 21.4 °C 18.6 °C 1007.1 hPa West 5 km/h 10 km/h 85% 0.00 mm 0.00 W/m2 unknown
20:59 21.2 °C 18.7 °C 1007.2 hPa WNW 7 km/h 8 km/h 86% 0.00 mm 0.00 W/m2 unknown
21:04 21.1 °C 18.8 °C 1007.3 hPa West 5 km/h 8 km/h 87% 0.00 mm 0.00 W/m2 unknown
21:09 21.0 °C 18.8 °C 1007.4 hPa WNW 4 km/h 6 km/h 87% 0.00 mm 0.00 W/m2 unknown
21:14 20.9 °C 18.7 °C 1007.6 hPa NNW 6 km/h 9 km/h 87% 0.00 mm 0.00 W/m2 unknown
21:19 20.9 °C 18.8 °C 1007.6 hPa NW 5 km/h 6 km/h 88% 0.00 mm 0.00 W/m2 unknown
21:24 20.9 °C 18.7 °C 1007.7 hPa NW 3 km/h 6 km/h 87% 0.00 mm 0.00 W/m2 unknown
21:29 20.9 °C 18.7 °C 1007.8 hPa NW 3 km/h 6 km/h 87% 0.00 mm 0.00 W/m2 unknown
21:34 20.9 °C 18.7 °C 1007.9 hPa NNW 3 km/h 6 km/h 87% 0.00 mm 0.00 W/m2 unknown
21:39 20.9 °C 18.7 °C 1007.9 hPa NNW 4 km/h 6 km/h 87% 0.00 mm 0.00 W/m2 unknown
21:44 20.9 °C 18.7 °C 1008.0 hPa North 4 km/h 6 km/h 87% 0.00 mm 0.00 W/m2 unknown
21:49 20.9 °C 18.7 °C 1008.1 hPa North 4 km/h 6 km/h 87% 0.00 mm 0.00 W/m2 unknown
21:54 20.8 °C 18.6 °C 1008.2 hPa NE 2 km/h 4 km/h 87% 0.00 mm 0.00 W/m2 unknown
21:59 20.7 °C 18.5 °C 1008.2 hPa NE 3 km/h 6 km/h 87% 0.00 mm 0.00 W/m2 unknown
22:04 20.6 °C 18.5 °C 1008.2 hPa SE 3 km/h 5 km/h 88% 0.00 mm 0.00 W/m2 unknown
22:09 20.5 °C 18.4 °C 1008.2 hPa SE 3 km/h 4 km/h 88% 0.00 mm 0.00 W/m2 unknown
22:14 20.5 °C 18.4 °C 1008.3 hPa SE 2 km/h 3 km/h 88% 0.00 mm 0.00 W/m2 unknown
22:19 20.5 °C 18.4 °C 1008.3 hPa Calm   2 km/h 88% 0.00 mm 0.00 W/m2 unknown
22:24 20.5 °C 18.4 °C 1008.3 hPa Calm   2 km/h 88% 0.00 mm 0.00 W/m2 unknown
22:29 20.5 °C 18.4 °C 1008.3 hPa Calm     88% 0.00 mm 0.00 W/m2 unknown
22:34 20.4 °C 18.4 °C 1008.4 hPa Calm     88% 0.00 mm 0.00 W/m2 unknown
22:39 20.4 °C 18.3 °C 1008.4 hPa Calm     88% 0.00 mm 0.00 W/m2 unknown
Stazione Meteorologica MeteoMincio Rivalta s/M (MN)
Con i complimenti di Weather Underground - 4 mb



METEO PILLOLE
La più ampia escursione termica annua
Verkhojansk - Russia
L'escursione termica va da -70°C a +36.6°C nel corso di un anno.
Share

Non seguire questo link o sarai bannato dal sito!